Maersk Boston — OZDB2 — position and weather

sailwx.info

Track history (hours):
 
Tides and Currents Weather Stations Pressure Air Temp Water Temp Dewpoint Dewpoint Depression Visibility Wind Speed Wind Dir Waves Ship Positions

Maersk Boston

Last reported at 2017-Dec-11 16:59 UTC. Time now 2017-Dec-14 17:13 UTC.
Position N 34°39' E 033°01'.

Length 294 m; draft 12.5 m.

Type: Ship (hazmat cat A). MMSI: 219216000.

Date/timePositionNaut miles runAvg speedWind from/ knotsBaromVisibWave heightAir tempDewpointWater temp
2017-Dec-11 16:59N 34°39' E 033°01'0 0.0
2017-Dec-11 16:29N 34°39' E 033°01'0 0.0
2017-Dec-11 15:59N 34°39' E 033°01'0 0.0
2017-Dec-11 15:29N 34°39' E 033°01'0 0.0
2017-Dec-11 14:56N 34°39' E 033°01'0 0.0
2017-Dec-11 14:31N 34°39' E 033°01'0 0.5
2017-Dec-11 14:01N 34°39' E 033°01'2 4.5
2017-Dec-11 13:31N 34°39' E 033°04'89319.3
2017-Dec-09 15:08N 36°12' E 014°53'319.7
2017-Dec-09 14:59N 36°13' E 014°50'1020.0
2017-Dec-09 14:30N 36°16' E 014°39'1019.9
2017-Dec-09 14:00N 36°20' E 014°28'1322.5
2017-Dec-09 13:27N 36°25' E 014°13'716.1
2017-Dec-09 13:00N 36°27' E 014°05'1221.9
2017-Dec-09 12:28N 36°32' E 013°51'  
2017-Dec-07 04:28N 36°29' W 008°54'2618.7
2017-Dec-07 03:05N 36°39' W 009°23'8419.5
2017-Dec-06 22:47N 37°59' W 009°55'620.0
2017-Dec-06 22:30N 38°04' W 009°57'1719.6
2017-Dec-06 21:37N 38°21' W 010°02'919.8
2017-Dec-06 21:09N 38°30' W 010°05'419.5
2017-Dec-06 20:58N 38°34' W 010°05'  
2017-Dec-04 10:30N 51°23' E 004°10'3 6.9
2017-Dec-04 10:00N 51°21' E 004°15'1 2.5
2017-Dec-04 09:31N 51°21' E 004°16'0 0.2
2017-Dec-04 09:01N 51°21' E 004°16'0 0.0
2017-Dec-04 08:31N 51°21' E 004°16'0 0.0
2017-Dec-04 08:01N 51°21' E 004°16'0 0.0
2017-Dec-04 07:30N 51°21' E 004°16'0 0.0
2017-Dec-04 07:01N 51°21' E 004°16'0 0.0
2017-Dec-04 06:30N 51°21' E 004°16'0 0.0
2017-Dec-04 06:01N 51°21' E 004°16'0 0.0
2017-Dec-04 05:31N 51°21' E 004°16'0 0.0
2017-Dec-04 05:01N 51°21' E 004°16'0 0.0
2017-Dec-04 04:31N 51°21' E 004°16'0 0.0
2017-Dec-04 04:01N 51°21' E 004°16'0 0.0
2017-Dec-04 03:31N 51°21' E 004°16'0 0.0
2017-Dec-04 03:00N 51°21' E 004°16'0 0.0
2017-Dec-04 02:31N 51°21' E 004°16'0 0.0
2017-Dec-04 02:01N 51°21' E 004°16'0 0.0
2017-Dec-04 01:31N 51°21' E 004°16'0 0.0
2017-Dec-04 00:59N 51°21' E 004°16'0 0.0
2017-Dec-04 00:30N 51°21' E 004°16'0 0.0
2017-Dec-04 00:01N 51°21' E 004°16'0 0.0
2017-Dec-03 23:30N 51°21' E 004°16'0 0.0
2017-Dec-03 23:00N 51°21' E 004°16'0 0.0
2017-Dec-03 22:31N 51°21' E 004°16'0 0.0
2017-Dec-03 22:01N 51°21' E 004°16'0 0.0
2017-Dec-03 21:29N 51°21' E 004°16'0 0.0
2017-Dec-03 21:01N 51°21' E 004°16'0 0.0
2017-Dec-03 20:31N 51°21' E 004°16'0 0.0
2017-Dec-03 20:01N 51°21' E 004°16'0 0.0
2017-Dec-03 19:30N 51°21' E 004°16'0 0.0
2017-Dec-03 19:00N 51°21' E 004°16'0 0.0
2017-Dec-03 18:31N 51°21' E 004°16'0 0.0
2017-Dec-03 18:00N 51°21' E 004°16'0 0.0
2017-Dec-03 17:30N 51°21' E 004°16'0 0.0
2017-Dec-03 17:00N 51°21' E 004°16'0 0.0
2017-Dec-03 16:31N 51°21' E 004°16'0 0.0
2017-Dec-03 16:01N 51°21' E 004°16'0 0.0
2017-Dec-03 15:30N 51°21' E 004°16'0 0.0
2017-Dec-03 15:01N 51°21' E 004°16'0 0.0
2017-Dec-03 14:29N 51°21' E 004°16'0 0.0
2017-Dec-03 14:01N 51°21' E 004°16'0 0.0
2017-Dec-03 13:31N 51°21' E 004°16'0 0.0
2017-Dec-03 13:00N 51°21' E 004°16'0 0.0
2017-Dec-03 12:31N 51°21' E 004°16'0 0.0
2017-Dec-03 11:59N 51°21' E 004°16'0 0.0
2017-Dec-03 11:30N 51°21' E 004°16'0 0.0
2017-Dec-03 11:00N 51°21' E 004°16'0 0.1
2017-Dec-03 10:30N 51°21' E 004°16'3 5.6
2017-Dec-03 10:01N 51°22' E 004°13'510.1
2017-Dec-03 09:30N 51°22' E 004°05'510.7
2017-Dec-03 09:01N 51°25' E 003°58'612.3
2017-Dec-03 08:30N 51°21' E 003°51'612.5
2017-Dec-03 08:00N 51°24' E 003°43'5 9.5
2017-Dec-03 07:30N 51°26' E 003°36'4 8.8
2017-Dec-03 07:00N 51°25' E 003°29'714.7
2017-Dec-03 06:31N 51°25' E 003°17'815.6
2017-Dec-03 06:01N 51°24' E 003°05'5 9.5
2017-Dec-03 05:30N 51°29' E 003°02'917.5
2017-Dec-03 05:01N 51°36' E 003°10'816.7
2017-Dec-03 04:30N 51°44' E 003°14'5 9.1
2017-Dec-03 03:54N 51°49' E 003°17'4 9.0
2017-Dec-03 03:28N 51°53' E 003°18'34 9.3
2017-Dec-02 23:50N 52°26' E 003°28'45 9.4
2017-Dec-02 19:02N 53°03' E 004°11'010.9
2017-Dec-02 19:00N 53°03' E 004°11'510.7
2017-Dec-02 18:30N 53°07' E 004°18'35 8.9
2017-Dec-02 14:36N 53°33' E 004°55'110.0
2017-Dec-02 14:30N 53°33' E 004°57'510.6
2017-Dec-02 14:00N 53°35' E 005°05'9517.7
2017-Dec-02 08:36N 53°56' E 007°43'217.0
2017-Dec-02 08:28N 53°54' E 007°44'612.4
2017-Dec-02 07:59N 53°52' E 007°54'613.7
2017-Dec-02 07:30N 53°50' E 008°04'714.8
2017-Dec-02 07:00N 53°45' E 008°13'714.6
2017-Dec-02 06:30N 53°40' E 008°23'612.0
2017-Dec-02 06:00N 53°36' E 008°30'0 0.5
2017-Dec-02 05:28N 53°36' E 008°31'0 0.0
2017-Dec-02 04:58N 53°36' E 008°31'0 0.0
2017-Dec-02 04:28N 53°36' E 008°31'0 0.0
2017-Dec-02 03:58N 53°36' E 008°31'0 0.0
2017-Dec-02 03:28N 53°36' E 008°31'0 0.0
2017-Dec-02 02:55N 53°36' E 008°31'0 0.0
2017-Dec-02 02:25N 53°36' E 008°31'0 0.0
2017-Dec-02 01:58N 53°36' E 008°31'0 0.0
2017-Dec-02 01:28N 53°36' E 008°31'0 0.0
2017-Dec-02 00:58N 53°36' E 008°31'0 0.0
2017-Dec-02 00:28N 53°36' E 008°31'0 0.0
2017-Dec-01 23:58N 53°36' E 008°31'0 0.0
2017-Dec-01 23:29N 53°36' E 008°31'0 0.0
2017-Dec-01 22:59N 53°36' E 008°31'0 0.0
2017-Dec-01 22:29N 53°36' E 008°31'0 0.0
2017-Dec-01 21:59N 53°36' E 008°31'0 0.0
2017-Dec-01 21:29N 53°36' E 008°31'0 0.0
2017-Dec-01 20:56N 53°36' E 008°31'0 0.0
2017-Dec-01 20:29N 53°36' E 008°31'0 0.0
2017-Dec-01 19:59N 53°36' E 008°31'0 0.0
2017-Dec-01 19:29N 53°36' E 008°31'0 0.0
2017-Dec-01 18:59N 53°36' E 008°31'0 0.0
2017-Dec-01 18:29N 53°36' E 008°31'0 0.0
2017-Dec-01 17:56N 53°36' E 008°31'0 0.0
2017-Dec-01 17:29N 53°36' E 008°31'  
Track history (hours):
 
Tides and Currents Weather Stations Pressure Air Temp Water Temp Dewpoint Dewpoint Depression Visibility Wind Speed Wind Dir Waves Ship Positions

Maersk Boston

Last reported at 2017-Dec-11 16:59 UTC. Time now 2017-Dec-14 17:13 UTC.
Position N 34°39' E 033°01'.

Length 294 m; draft 12.5 m.

Type: Ship (hazmat cat A). MMSI: 219216000.

Date/timePositionNaut miles runAvg speedWind from/ knotsBaromVisibWave heightAir tempDewpointWater temp
2017-Dec-11 16:59N 34°39' E 033°01'0 0.0
2017-Dec-11 16:29N 34°39' E 033°01'0 0.0
2017-Dec-11 15:59N 34°39' E 033°01'0 0.0
2017-Dec-11 15:29N 34°39' E 033°01'0 0.0
2017-Dec-11 14:56N 34°39' E 033°01'0 0.0
2017-Dec-11 14:31N 34°39' E 033°01'0 0.5
2017-Dec-11 14:01N 34°39' E 033°01'2 4.5
2017-Dec-11 13:31N 34°39' E 033°04'89319.3
2017-Dec-09 15:08N 36°12' E 014°53'319.7
2017-Dec-09 14:59N 36°13' E 014°50'1020.0
2017-Dec-09 14:30N 36°16' E 014°39'1019.9
2017-Dec-09 14:00N 36°20' E 014°28'1322.5
2017-Dec-09 13:27N 36°25' E 014°13'716.1
2017-Dec-09 13:00N 36°27' E 014°05'1221.9
2017-Dec-09 12:28N 36°32' E 013°51'  
2017-Dec-07 04:28N 36°29' W 008°54'2618.7
2017-Dec-07 03:05N 36°39' W 009°23'8419.5
2017-Dec-06 22:47N 37°59' W 009°55'620.0
2017-Dec-06 22:30N 38°04' W 009°57'1719.6
2017-Dec-06 21:37N 38°21' W 010°02'919.8
2017-Dec-06 21:09N 38°30' W 010°05'419.5
2017-Dec-06 20:58N 38°34' W 010°05'  
2017-Dec-04 10:30N 51°23' E 004°10'3 6.9
2017-Dec-04 10:00N 51°21' E 004°15'1 2.5
2017-Dec-04 09:31N 51°21' E 004°16'0 0.2
2017-Dec-04 09:01N 51°21' E 004°16'0 0.0
2017-Dec-04 08:31N 51°21' E 004°16'0 0.0
2017-Dec-04 08:01N 51°21' E 004°16'0 0.0
2017-Dec-04 07:30N 51°21' E 004°16'0 0.0
2017-Dec-04 07:01N 51°21' E 004°16'0 0.0
2017-Dec-04 06:30N 51°21' E 004°16'0 0.0
2017-Dec-04 06:01N 51°21' E 004°16'0 0.0
2017-Dec-04 05:31N 51°21' E 004°16'0 0.0
2017-Dec-04 05:01N 51°21' E 004°16'0 0.0
2017-Dec-04 04:31N 51°21' E 004°16'0 0.0
2017-Dec-04 04:01N 51°21' E 004°16'0 0.0
2017-Dec-04 03:31N 51°21' E 004°16'0 0.0
2017-Dec-04 03:00N 51°21' E 004°16'0 0.0
2017-Dec-04 02:31N 51°21' E 004°16'0 0.0
2017-Dec-04 02:01N 51°21' E 004°16'0 0.0
2017-Dec-04 01:31N 51°21' E 004°16'0 0.0
2017-Dec-04 00:59N 51°21' E 004°16'0 0.0
2017-Dec-04 00:30N 51°21' E 004°16'0 0.0
2017-Dec-04 00:01N 51°21' E 004°16'0 0.0
2017-Dec-03 23:30N 51°21' E 004°16'0 0.0
2017-Dec-03 23:00N 51°21' E 004°16'0 0.0
2017-Dec-03 22:31N 51°21' E 004°16'0 0.0
2017-Dec-03 22:01N 51°21' E 004°16'0 0.0
2017-Dec-03 21:29N 51°21' E 004°16'0 0.0
2017-Dec-03 21:01N 51°21' E 004°16'0 0.0
2017-Dec-03 20:31N 51°21' E 004°16'0 0.0
2017-Dec-03 20:01N 51°21' E 004°16'0 0.0
2017-Dec-03 19:30N 51°21' E 004°16'0 0.0
2017-Dec-03 19:00N 51°21' E 004°16'0 0.0
2017-Dec-03 18:31N 51°21' E 004°16'0 0.0
2017-Dec-03 18:00N 51°21' E 004°16'0 0.0
2017-Dec-03 17:30N 51°21' E 004°16'0 0.0
2017-Dec-03 17:00N 51°21' E 004°16'0 0.0
2017-Dec-03 16:31N 51°21' E 004°16'0 0.0
2017-Dec-03 16:01N 51°21' E 004°16'0 0.0
2017-Dec-03 15:30N 51°21' E 004°16'0 0.0
2017-Dec-03 15:01N 51°21' E 004°16'0 0.0
2017-Dec-03 14:29N 51°21' E 004°16'0 0.0
2017-Dec-03 14:01N 51°21' E 004°16'0 0.0
2017-Dec-03 13:31N 51°21' E 004°16'0 0.0
2017-Dec-03 13:00N 51°21' E 004°16'0 0.0
2017-Dec-03 12:31N 51°21' E 004°16'0 0.0
2017-Dec-03 11:59N 51°21' E 004°16'0 0.0
2017-Dec-03 11:30N 51°21' E 004°16'0 0.0
2017-Dec-03 11:00N 51°21' E 004°16'0 0.1
2017-Dec-03 10:30N 51°21' E 004°16'3 5.6
2017-Dec-03 10:01N 51°22' E 004°13'510.1
2017-Dec-03 09:30N 51°22' E 004°05'510.7
2017-Dec-03 09:01N 51°25' E 003°58'612.3
2017-Dec-03 08:30N 51°21' E 003°51'612.5
2017-Dec-03 08:00N 51°24' E 003°43'5 9.5
2017-Dec-03 07:30N 51°26' E 003°36'4 8.8
2017-Dec-03 07:00N 51°25' E 003°29'714.7
2017-Dec-03 06:31N 51°25' E 003°17'815.6
2017-Dec-03 06:01N 51°24' E 003°05'5 9.5
2017-Dec-03 05:30N 51°29' E 003°02'917.5
2017-Dec-03 05:01N 51°36' E 003°10'816.7
2017-Dec-03 04:30N 51°44' E 003°14'5 9.1
2017-Dec-03 03:54N 51°49' E 003°17'4 9.0
2017-Dec-03 03:28N 51°53' E 003°18'34 9.3
2017-Dec-02 23:50N 52°26' E 003°28'45 9.4
2017-Dec-02 19:02N 53°03' E 004°11'010.9
2017-Dec-02 19:00N 53°03' E 004°11'510.7
2017-Dec-02 18:30N 53°07' E 004°18'35 8.9
2017-Dec-02 14:36N 53°33' E 004°55'110.0
2017-Dec-02 14:30N 53°33' E 004°57'510.6
2017-Dec-02 14:00N 53°35' E 005°05'9517.7
2017-Dec-02 08:36N 53°56' E 007°43'217.0
2017-Dec-02 08:28N 53°54' E 007°44'612.4
2017-Dec-02 07:59N 53°52' E 007°54'613.7
2017-Dec-02 07:30N 53°50' E 008°04'714.8
2017-Dec-02 07:00N 53°45' E 008°13'714.6
2017-Dec-02 06:30N 53°40' E 008°23'612.0
2017-Dec-02 06:00N 53°36' E 008°30'0 0.5
2017-Dec-02 05:28N 53°36' E 008°31'0 0.0
2017-Dec-02 04:58N 53°36' E 008°31'0 0.0
2017-Dec-02 04:28N 53°36' E 008°31'0 0.0
2017-Dec-02 03:58N 53°36' E 008°31'0 0.0
2017-Dec-02 03:28N 53°36' E 008°31'0 0.0
2017-Dec-02 02:55N 53°36' E 008°31'0 0.0
2017-Dec-02 02:25N 53°36' E 008°31'0 0.0
2017-Dec-02 01:58N 53°36' E 008°31'0 0.0
2017-Dec-02 01:28N 53°36' E 008°31'0 0.0
2017-Dec-02 00:58N 53°36' E 008°31'0 0.0
2017-Dec-02 00:28N 53°36' E 008°31'0 0.0
2017-Dec-01 23:58N 53°36' E 008°31'0 0.0
2017-Dec-01 23:29N 53°36' E 008°31'0 0.0
2017-Dec-01 22:59N 53°36' E 008°31'0 0.0
2017-Dec-01 22:29N 53°36' E 008°31'0 0.0
2017-Dec-01 21:59N 53°36' E 008°31'0 0.0
2017-Dec-01 21:29N 53°36' E 008°31'0 0.0
2017-Dec-01 20:56N 53°36' E 008°31'0 0.0
2017-Dec-01 20:29N 53°36' E 008°31'0 0.0
2017-Dec-01 19:59N 53°36' E 008°31'0 0.0
2017-Dec-01 19:29N 53°36' E 008°31'0 0.0
2017-Dec-01 18:59N 53°36' E 008°31'0 0.0
2017-Dec-01 18:29N 53°36' E 008°31'0 0.0
2017-Dec-01 17:56N 53°36' E 008°31'0 0.0
2017-Dec-01 17:29N 53°36' E 008°31'  

Dump ship's entire track history